Time;durP1;ratioP1;P1;durP2;ratioP2;P2;SDS_P1;SDS_P2;PMS_P1;PMS_P2;Temp;Humidity;BMP_temperature;BMP_pressure;BME280_temperature;BME280_humidity;BME280_pressure;Samples;Min_cycle;Max_cycle;Signal;HPM_P1;HPM_P2
2023/10/31 00:01:32;;;;;;;5.43;3.50;;;;;;;14.19;75.09;97552.94;5106872;28;20181;-73
2023/10/31 00:03:59;;;;;;;8.77;3.25;;;;;;;14.19;75.25;97567.09;5106671;28;20216;-73
2023/10/31 00:06:28;;;;;;;6.55;3.00;;;;;;;14.21;75.42;97566.94;5108000;28;20040;-73
2023/10/31 00:08:55;;;;;;;5.90;3.50;;;;;;;14.20;74.49;97555.44;5107581;28;20047;-73
2023/10/31 00:11:21;;;;;;;5.03;3.28;;;;;;;14.22;74.83;97565.94;5107608;28;20235;-73
2023/10/31 00:13:48;;;;;;;5.38;3.22;;;;;;;13.86;74.70;97514.44;5107381;28;20040;-73
2023/10/31 00:16:15;;;;;;;8.02;3.30;;;;;;;14.18;74.53;97557.41;5106301;28;20047;-73
2023/10/31 00:18:41;;;;;;;4.50;3.20;;;;;;;14.16;75.26;97551.41;5106549;28;20044;-73
2023/10/31 00:21:08;;;;;;;4.68;3.20;;;;;;;14.18;74.98;97536.09;5107281;28;20292;-73
2023/10/31 00:23:43;;;;;;;6.55;3.50;;;;;;;13.94;74.19;97510.03;5107710;28;20052;-73
2023/10/31 00:26:10;;;;;;;5.43;3.13;;;;;;;14.11;74.52;97540.34;5107554;28;20043;-73
2023/10/31 00:28:38;;;;;;;4.68;3.08;;;;;;;13.84;74.43;97487.13;5089780;28;20044;-73
2023/10/31 00:31:06;;;;;;;5.10;3.33;;;;;;;14.11;73.90;97519.03;5106810;28;20056;-73
2023/10/31 00:33:33;;;;;;;5.13;3.25;;;;;;;13.85;74.32;97471.00;5106523;28;20246;-73
2023/10/31 00:36:00;;;;;;;6.72;3.38;;;;;;;13.48;73.90;97424.03;5107307;28;20101;-73
2023/10/31 00:38:27;;;;;;;6.78;3.42;;;;;;;13.98;73.92;97505.25;5107038;28;20040;-73
2023/10/31 00:40:55;;;;;;;4.40;2.83;;;;;;;14.11;73.76;97525.22;5107330;28;20071;-73
2023/10/31 00:43:21;;;;;;;4.10;2.97;;;;;;;14.16;74.52;97518.59;5105816;28;20047;-73
2023/10/31 00:45:48;;;;;;;6.90;3.47;;;;;;;14.15;74.03;97515.09;5107222;28;20284;-73
2023/10/31 00:48:15;;;;;;;3.95;2.95;;;;;;;14.10;73.86;97520.03;5107151;28;20292;-73
2023/10/31 00:50:42;;;;;;;4.63;3.03;;;;;;;14.13;74.18;97503.75;5107343;28;20048;-73
2023/10/31 00:53:08;;;;;;;7.75;3.08;;;;;;;14.10;73.38;97510.22;5107312;28;20089;-72
2023/10/31 00:55:35;;;;;;;7.07;3.28;;;;;;;14.11;74.24;97514.56;5106643;28;20111;-73
2023/10/31 00:58:03;;;;;;;5.07;3.05;;;;;;;14.11;73.88;97527.03;5106691;28;20349;-73
2023/10/31 01:00:31;;;;;;;5.32;3.08;;;;;;;14.12;74.16;97523.38;5106615;28;20040;-73
2023/10/31 01:02:58;;;;;;;7.28;3.50;;;;;;;14.11;73.48;97513.72;5089090;28;20131;-73
2023/10/31 01:05:26;;;;;;;4.13;2.83;;;;;;;14.10;73.40;97523.53;5107035;28;20040;-73
2023/10/31 01:07:53;;;;;;;4.60;3.03;;;;;;;12.74;73.29;97295.66;5106745;28;20048;-74
2023/10/31 01:10:20;;;;;;;6.13;3.60;;;;;;;14.07;73.70;97515.84;5106769;28;20051;-74
2023/10/31 01:12:46;;;;;;;7.22;3.58;;;;;;;14.02;73.08;97506.63;5106656;28;20051;-74
2023/10/31 01:15:15;;;;;;;4.22;2.88;;;;;;;13.82;73.15;97450.00;5106569;28;20089;-73
2023/10/31 01:17:41;;;;;;;4.13;3.08;;;;;;;14.01;73.67;97479.16;5106275;28;20329;-73
2023/10/31 01:20:09;;;;;;;5.65;3.22;;;;;;;13.80;72.87;97444.84;5105392;28;20047;-73
2023/10/31 01:22:36;;;;;;;6.25;2.95;;;;;;;14.01;72.53;97468.50;5106498;28;20036;-73
2023/10/31 01:25:03;;;;;;;4.95;3.47;;;;;;;14.00;72.91;97460.66;5105332;28;20296;-74
2023/10/31 01:27:30;;;;;;;9.30;3.35;;;;;;;13.82;72.67;97433.19;5104323;28;20081;-74
2023/10/31 01:29:56;;;;;;;7.15;3.10;;;;;;;14.01;72.83;97454.34;5106439;28;20044;-74
2023/10/31 01:32:24;;;;;;;4.65;3.30;;;;;;;13.98;72.50;97441.34;5105754;28;20044;-74
2023/10/31 01:34:51;;;;;;;10.25;3.85;;;;;;;13.99;72.79;97438.53;5105120;28;20088;-73
2023/10/31 01:37:19;;;;;;;4.07;2.90;;;;;;;13.97;72.66;97419.19;5106551;28;20043;-73
2023/10/31 01:39:45;;;;;;;4.78;3.03;;;;;;;14.00;72.44;97407.41;5106515;28;20055;-73
2023/10/31 01:42:14;;;;;;;6.47;3.22;;;;;;;13.98;72.12;97402.22;5105946;28;20039;-76
2023/10/31 01:44:41;;;;;;;4.53;3.03;;;;;;;13.98;71.98;97401.41;5106281;28;20114;-73
2023/10/31 01:47:08;;;;;;;7.13;3.28;;;;;;;13.99;71.58;97397.75;5105044;28;20048;-73
2023/10/31 01:49:36;;;;;;;6.05;3.17;;;;;;;13.70;71.48;97361.53;5105014;28;20044;-73
2023/10/31 01:52:04;;;;;;;8.63;3.85;;;;;;;14.02;71.73;97403.59;5105845;28;20319;-73
2023/10/31 01:54:31;;;;;;;5.78;3.33;;;;;;;14.01;72.05;97414.41;5104888;28;20054;-74
2023/10/31 01:56:58;;;;;;;4.10;3.20;;;;;;;14.00;72.42;97383.44;5105766;28;20051;-73
2023/10/31 01:59:25;;;;;;;6.03;2.88;;;;;;;14.00;72.08;97388.75;5105734;28;20115;-73
2023/10/31 02:01:52;;;;;;;4.50;3.10;;;;;;;13.87;72.24;97359.03;5105639;28;20044;-73
2023/10/31 02:04:19;;;;;;;4.60;3.22;;;;;;;13.99;72.28;97366.63;5105688;28;20049;-73
2023/10/31 02:06:47;;;;;;;5.50;3.20;;;;;;;13.98;71.89;97375.59;5105896;28;20044;-73
2023/10/31 02:09:14;;;;;;;4.88;3.47;;;;;;;13.99;71.91;97368.44;5106479;28;20230;-73
2023/10/31 02:11:41;;;;;;;5.80;3.92;;;;;;;13.97;71.27;97373.09;5105289;28;20047;-74
2023/10/31 02:14:07;;;;;;;5.07;2.90;;;;;;;13.98;72.16;97358.78;5105769;28;20040;-73
2023/10/31 02:16:34;;;;;;;6.32;3.15;;;;;;;13.98;72.02;97362.28;5105808;28;20052;-73
2023/10/31 02:19:01;;;;;;;7.25;3.40;;;;;;;13.99;72.67;97360.47;5105537;28;20044;-73
2023/10/31 02:21:31;;;;;;;6.20;3.60;;;;;;;13.96;72.52;97356.28;5105768;28;20043;-74
2023/10/31 02:24:00;;;;;;;7.60;3.42;;;;;;;13.99;72.36;97347.13;5105753;28;20070;-73
2023/10/31 02:26:30;;;;;;;4.97;3.33;;;;;;;13.96;72.25;97342.13;5105463;28;20103;-73
2023/10/31 02:28:57;;;;;;;5.55;3.75;;;;;;;13.95;72.03;97327.97;5104571;28;20082;-73
2023/10/31 02:31:23;;;;;;;6.15;2.75;;;;;;;13.96;71.90;97337.63;5105315;28;20360;-73
2023/10/31 02:33:50;;;;;;;5.40;3.20;;;;;;;13.83;72.31;97328.38;5105976;28;20051;-73
2023/10/31 02:36:17;;;;;;;4.72;3.17;;;;;;;13.98;71.74;97351.63;5105228;28;20320;-73
2023/10/31 02:38:43;;;;;;;4.75;2.72;;;;;;;14.01;72.29;97340.66;5108371;28;20055;-73
2023/10/31 02:41:11;;;;;;;5.03;3.00;;;;;;;14.01;72.07;97350.47;5109341;28;20044;-73
2023/10/31 02:43:38;;;;;;;4.50;2.88;;;;;;;14.00;72.04;97351.47;5109568;28;20040;-73
2023/10/31 02:46:05;;;;;;;5.03;2.65;;;;;;;13.98;71.91;97350.78;5109512;28;20192;-73
2023/10/31 02:48:38;;;;;;;3.72;2.63;;;;;;;13.99;72.06;97352.47;5109519;28;20071;-73
2023/10/31 02:51:05;;;;;;;5.28;3.38;;;;;;;13.21;71.44;97234.31;5108281;28;20054;-73
2023/10/31 02:53:31;;;;;;;6.25;3.15;;;;;;;13.65;71.61;97320.41;5109356;28;20062;-73
2023/10/31 02:55:58;;;;;;;6.50;3.50;;;;;;;14.00;71.54;97376.28;5108692;28;20081;-73
2023/10/31 02:58:26;;;;;;;5.43;3.15;;;;;;;14.01;71.67;97358.47;5109287;28;20040;-73
2023/10/31 03:00:53;;;;;;;5.03;3.10;;;;;;;13.72;71.60;97324.13;5109494;28;20056;-73
2023/10/31 03:03:20;;;;;;;7.55;3.10;;;;;;;13.99;71.98;97379.94;5108375;28;20086;-73
2023/10/31 03:05:46;;;;;;;5.43;3.03;;;;;;;14.00;72.50;97386.94;5107976;28;20036;-73
2023/10/31 03:08:13;;;;;;;7.57;3.08;;;;;;;14.01;72.42;97417.06;5107885;28;20052;-73
2023/10/31 03:10:40;;;;;;;4.93;3.15;;;;;;;14.02;72.72;97432.06;5108765;28;20039;-72
2023/10/31 03:13:07;;;;;;;5.70;3.20;;;;;;;14.02;72.11;97413.41;5107849;28;20039;-73
2023/10/31 03:15:35;;;;;;;4.43;2.65;;;;;;;13.83;71.77;97373.63;5108866;28;20070;-72
2023/10/31 03:18:02;;;;;;;4.47;2.97;;;;;;;14.01;71.84;97423.22;5108837;28;20109;-73
2023/10/31 03:20:29;;;;;;;7.60;3.45;;;;;;;14.02;71.63;97414.25;5108529;28;20050;-73
2023/10/31 03:22:55;;;;;;;5.43;3.65;;;;;;;14.05;72.43;97442.41;5109044;28;20056;-73
2023/10/31 03:25:22;;;;;;;3.45;2.33;;;;;;;14.01;72.88;97459.69;5108502;28;20040;-72
2023/10/31 03:27:49;;;;;;;5.38;2.58;;;;;;;14.02;72.77;97461.34;5108129;28;20040;-72
2023/10/31 03:30:16;;;;;;;2.67;1.75;;;;;;;13.97;72.89;97448.50;5107696;28;20052;-72
2023/10/31 03:32:44;;;;;;;4.18;2.00;;;;;;;13.96;73.06;97444.16;5108001;28;20062;-72
2023/10/31 03:35:10;;;;;;;3.38;1.63;;;;;;;13.90;73.24;97441.25;5108744;28;20039;-72
2023/10/31 03:37:41;;;;;;;3.17;1.77;;;;;;;13.74;72.86;97402.84;5108268;28;20242;-72
2023/10/31 03:40:09;;;;;;;2.80;1.80;;;;;;;13.94;72.97;97439.97;5107346;28;20208;-72
2023/10/31 03:42:35;;;;;;;2.42;1.80;;;;;;;13.98;73.54;97450.16;5108402;28;20044;-72
2023/10/31 03:45:02;;;;;;;2.28;1.60;;;;;;;13.93;73.03;97460.44;5108396;28;20062;-71
2023/10/31 03:47:29;;;;;;;2.13;1.50;;;;;;;13.92;73.20;97466.75;5108319;28;20051;-72
2023/10/31 03:49:57;;;;;;;1.95;1.30;;;;;;;13.91;73.32;97467.75;5108004;28;20055;-72
2023/10/31 03:52:24;;;;;;;1.88;1.27;;;;;;;13.71;73.45;97435.09;5107126;28;20115;-72
2023/10/31 03:54:51;;;;;;;1.90;1.20;;;;;;;13.89;73.19;97463.56;5107769;28;20320;-72
2023/10/31 03:57:17;;;;;;;2.08;1.38;;;;;;;13.85;73.47;97476.34;5108103;28;20043;-72
2023/10/31 03:59:44;;;;;;;2.25;1.48;;;;;;;13.83;73.17;97488.13;5107003;28;20040;-71
2023/10/31 04:02:11;;;;;;;1.83;1.40;;;;;;;13.83;73.05;97488.13;5108296;28;20123;-72
2023/10/31 04:04:38;;;;;;;1.75;1.25;;;;;;;13.67;73.50;97464.81;5107418;28;20040;-72
2023/10/31 04:07:06;;;;;;;1.60;1.20;;;;;;;13.79;72.87;97507.06;5107555;28;20048;-71
2023/10/31 04:09:33;;;;;;;1.80;1.30;;;;;;;13.79;73.17;97516.88;5107587;28;20107;-71
2023/10/31 04:12:00;;;;;;;2.10;1.58;;;;;;;13.79;73.01;97511.53;5106699;28;20327;-72
2023/10/31 04:14:26;;;;;;;2.25;1.55;;;;;;;13.78;73.30;97515.19;5107875;28;20097;-72
2023/10/31 04:16:53;;;;;;;2.40;1.42;;;;;;;13.77;73.51;97516.19;5107695;28;20081;-72
2023/10/31 04:19:20;;;;;;;2.15;1.35;;;;;;;13.73;73.39;97520.97;5107684;28;20089;-72
2023/10/31 04:21:46;;;;;;;2.58;1.40;;;;;;;13.73;73.25;97517.47;5107645;28;20082;-71
2023/10/31 04:24:15;;;;;;;2.17;1.50;;;;;;;13.69;73.57;97535.56;5107545;28;20044;-71
2023/10/31 04:26:41;;;;;;;2.33;1.50;;;;;;;13.69;73.63;97535.56;5106788;28;20110;-72
2023/10/31 04:29:08;;;;;;;2.28;1.67;;;;;;;13.73;73.73;97536.94;5107524;28;20039;-71
2023/10/31 04:31:35;;;;;;;2.83;1.65;;;;;;;13.69;73.64;97542.72;5107005;28;20060;-71
2023/10/31 04:34:01;;;;;;;2.42;1.67;;;;;;;13.66;73.73;97549.16;5107676;28;20097;-72
2023/10/31 04:36:28;;;;;;;2.33;1.52;;;;;;;13.67;73.25;97563.31;5089545;28;20036;-72
2023/10/31 04:38:55;;;;;;;2.47;1.60;;;;;;;13.51;73.92;97516.03;5107608;28;20192;-71
2023/10/31 04:41:23;;;;;;;3.17;1.73;;;;;;;13.63;73.90;97546.81;5106141;28;20039;-72
2023/10/31 04:43:50;;;;;;;2.10;1.50;;;;;;;13.62;73.70;97544.28;5107212;28;20108;-72
2023/10/31 04:46:16;;;;;;;2.33;1.50;;;;;;;13.61;73.69;97548.78;5105991;28;20085;-71
2023/10/31 04:48:43;;;;;;;2.42;1.52;;;;;;;13.58;73.96;97548.22;5106868;28;20237;-72
2023/10/31 04:51:10;;;;;;;2.00;1.40;;;;;;;13.60;73.88;97544.44;5107139;28;20284;-72
2023/10/31 04:53:37;;;;;;;2.10;1.60;;;;;;;13.57;73.73;97552.72;5106767;28;20101;-72
2023/10/31 04:56:04;;;;;;;2.42;1.60;;;;;;;13.58;73.68;97562.38;5106902;28;20090;-72
2023/10/31 04:58:32;;;;;;;2.10;1.55;;;;;;;13.56;73.77;97568.81;5106667;28;20066;-72
2023/10/31 05:00:59;;;;;;;2.00;1.55;;;;;;;13.55;73.82;97568.00;5106716;28;20056;-72
2023/10/31 05:03:26;;;;;;;2.20;1.50;;;;;;;13.57;73.67;97555.38;5107180;28;20148;-72
2023/10/31 05:05:53;;;;;;;2.05;1.40;;;;;;;13.56;74.01;97571.50;5106530;28;20285;-72
2023/10/31 05:08:19;;;;;;;2.28;1.55;;;;;;;13.57;73.80;97562.53;5106756;28;20052;-71
2023/10/31 05:10:47;;;;;;;2.40;1.55;;;;;;;13.53;73.49;97545.16;5106715;28;20040;-72
2023/10/31 05:13:14;;;;;;;2.05;1.40;;;;;;;13.52;73.96;97575.44;5106131;28;20044;-72
2023/10/31 05:15:42;;;;;;;2.13;1.40;;;;;;;13.52;73.86;97578.09;5106550;28;20058;-72
2023/10/31 05:18:09;;;;;;;2.00;1.50;;;;;;;13.25;74.17;97554.91;5105482;28;20040;-72
2023/10/31 05:20:36;;;;;;;1.73;1.30;;;;;;;13.48;74.24;97605.00;5105659;28;20050;-72
2023/10/31 05:23:02;;;;;;;2.47;1.35;;;;;;;13.44;74.22;97584.97;5106499;28;20108;-71
2023/10/31 05:25:29;;;;;;;1.88;1.30;;;;;;;13.43;74.06;97614.41;5106431;28;20040;-71
2023/10/31 05:27:56;;;;;;;2.42;1.40;;;;;;;13.43;74.36;97617.06;5106748;28;20227;-72
2023/10/31 05:30:23;;;;;;;2.33;1.40;;;;;;;13.44;74.21;97618.72;5105092;28;20052;-72
2023/10/31 05:32:52;;;;;;;2.17;1.40;;;;;;;13.44;74.38;97622.22;5106302;28;20043;-72
2023/10/31 05:35:19;;;;;;;3.38;1.80;;;;;;;13.24;74.36;97606.44;5105065;28;20085;-72
2023/10/31 05:37:47;;;;;;;1.80;1.30;;;;;;;12.76;74.35;97524.94;5105065;28;20052;-72
2023/10/31 05:40:14;;;;;;;2.20;1.40;;;;;;;13.36;74.17;97631.88;5106162;28;20040;-72
2023/10/31 05:42:41;;;;;;;2.58;1.75;;;;;;;13.35;73.97;97635.53;5105594;28;20040;-72
2023/10/31 05:45:08;;;;;;;3.40;2.00;;;;;;;13.31;73.64;97644.78;5106177;28;20051;-72
2023/10/31 05:47:34;;;;;;;1.90;1.30;;;;;;;13.28;73.50;97648.56;5106075;28;20043;-72
2023/10/31 05:50:02;;;;;;;2.72;1.48;;;;;;;13.28;73.70;97645.06;5106376;28;20043;-72
2023/10/31 05:52:30;;;;;;;2.30;1.55;;;;;;;13.24;72.66;97652.50;5106020;28;20058;-72
2023/10/31 05:54:57;;;;;;;2.35;1.40;;;;;;;13.25;73.05;97651.50;5106075;28;20100;-72
2023/10/31 05:57:23;;;;;;;2.03;1.50;;;;;;;13.19;72.26;97657.41;5105635;28;20036;-72
2023/10/31 05:59:50;;;;;;;2.30;1.30;;;;;;;13.21;72.51;97658.09;5088214;28;20048;-71
2023/10/31 06:02:17;;;;;;;1.90;1.33;;;;;;;13.15;72.46;97666.66;5105939;28;20047;-71
2023/10/31 06:04:44;;;;;;;2.17;1.40;;;;;;;13.12;71.46;97677.56;5105841;28;20040;-72
2023/10/31 06:07:13;;;;;;;2.60;1.48;;;;;;;13.12;72.59;97689.03;5105646;28;20208;-72
2023/10/31 06:09:39;;;;;;;2.60;1.38;;;;;;;13.13;72.57;97689.88;5105818;28;20051;-72
2023/10/31 06:12:06;;;;;;;1.90;1.30;;;;;;;13.10;72.25;97692.81;5105911;28;20043;-72
2023/10/31 06:14:33;;;;;;;1.92;1.40;;;;;;;13.08;72.05;97706.25;5109826;28;20051;-72
2023/10/31 06:17:01;;;;;;;1.98;1.40;;;;;;;13.11;72.16;97705.13;5110018;28;20054;-71
2023/10/31 06:19:27;;;;;;;2.10;1.40;;;;;;;12.46;72.98;97613.63;5109106;28;20036;-71
2023/10/31 06:21:54;;;;;;;1.92;1.30;;;;;;;13.10;72.79;97722.06;5108727;28;20039;-71
2023/10/31 06:24:22;;;;;;;2.38;1.63;;;;;;;13.09;72.75;97715.91;5109804;28;20288;-71
2023/10/31 06:26:49;;;;;;;2.47;1.48;;;;;;;13.09;72.65;97721.25;5109618;28;20058;-71
2023/10/31 06:29:16;;;;;;;1.95;1.30;;;;;;;13.11;72.98;97713.13;5110034;28;20055;-72
2023/10/31 06:31:42;;;;;;;2.67;1.70;;;;;;;13.09;72.83;97731.03;5108495;28;20047;-72
2023/10/31 06:34:09;;;;;;;2.13;1.45;;;;;;;13.03;72.87;97753.72;5108541;28;20192;-72
2023/10/31 06:36:36;;;;;;;2.35;1.52;;;;;;;13.04;72.81;97759.88;5108358;28;20047;-72
2023/10/31 06:39:03;;;;;;;2.20;1.35;;;;;;;13.00;72.30;97748.66;5108855;28;20044;-71
2023/10/31 06:41:31;;;;;;;2.05;1.27;;;;;;;13.00;72.68;97767.28;5109479;28;20358;-71
2023/10/31 06:43:58;;;;;;;3.20;1.38;;;;;;;12.94;72.40;97748.38;5109245;28;20254;-71
2023/10/31 06:46:25;;;;;;;2.00;1.30;;;;;;;12.94;72.05;97765.19;5108356;28;20047;-72
2023/10/31 06:48:52;;;;;;;1.65;1.20;;;;;;;12.93;71.93;97752.03;5109175;28;20280;-72
2023/10/31 06:51:18;;;;;;;2.78;1.42;;;;;;;12.94;71.75;97759.84;5109692;28;20242;-71
2023/10/31 06:53:45;;;;;;;1.98;1.30;;;;;;;12.89;72.04;97759.44;5108739;28;20046;-71
2023/10/31 06:56:12;;;;;;;2.28;1.50;;;;;;;12.84;72.21;97745.72;5109176;28;20040;-71
2023/10/31 06:58:40;;;;;;;3.30;2.10;;;;;;;12.88;71.56;97741.81;5109210;28;20051;-71
2023/10/31 07:01:06;;;;;;;2.15;1.50;;;;;;;12.83;72.06;97742.22;5108864;28;20235;-71
2023/10/31 07:03:33;;;;;;;1.88;1.38;;;;;;;12.81;71.73;97730.03;5109110;28;20064;-71
2023/10/31 07:06:00;;;;;;;1.75;1.33;;;;;;;12.80;71.45;97717.72;5109350;28;20234;-72
2023/10/31 07:08:27;;;;;;;1.73;1.30;;;;;;;12.80;71.85;97731.00;5109009;28;20047;-71
2023/10/31 07:10:53;;;;;;;1.67;1.20;;;;;;;12.81;71.71;97730.03;5107739;28;20225;-71
2023/10/31 07:13:20;;;;;;;2.72;1.50;;;;;;;12.77;71.75;97724.16;5108903;28;20048;-71
2023/10/31 07:15:48;;;;;;;1.42;1.23;;;;;;;12.72;71.64;97730.84;5108430;28;20051;-71
2023/10/31 07:18:16;;;;;;;1.90;1.20;;;;;;;12.73;71.37;97733.38;5108704;28;20040;-71
2023/10/31 07:20:43;;;;;;;4.55;1.40;;;;;;;12.69;71.19;97747.91;5108518;28;20052;-72
2023/10/31 07:23:09;;;;;;;2.05;1.20;;;;;;;12.67;71.21;97755.19;5108857;28;20093;-72
2023/10/31 07:25:36;;;;;;;1.70;1.20;;;;;;;12.62;70.44;97757.41;5107523;28;20071;-71
2023/10/31 07:28:03;;;;;;;1.55;1.17;;;;;;;12.64;71.39;97755.47;5108026;28;20048;-72
2023/10/31 07:30:30;;;;;;;1.83;1.20;;;;;;;12.64;71.08;97771.41;5108187;28;20101;-72
2023/10/31 07:32:58;;;;;;;1.60;1.20;;;;;;;12.61;70.85;97768.19;5108613;28;20067;-71
2023/10/31 07:35:24;;;;;;;2.25;1.55;;;;;;;12.62;71.16;97762.72;5108875;28;20051;-71
2023/10/31 07:37:51;;;;;;;1.65;1.10;;;;;;;12.60;70.71;97793.91;5108439;28;20101;-72
2023/10/31 07:40:18;;;;;;;1.73;1.25;;;;;;;12.62;71.29;97804.41;5108444;28;20044;-72
2023/10/31 07:42:44;;;;;;;1.50;1.10;;;;;;;12.41;70.87;97756.66;5107286;28;20299;-72
2023/10/31 07:45:11;;;;;;;1.88;1.35;;;;;;;12.46;70.92;97770.38;5107243;28;20040;-72
2023/10/31 07:47:38;;;;;;;1.85;1.20;;;;;;;12.60;70.87;97806.38;5108315;28;20039;-72
2023/10/31 07:50:07;;;;;;;2.03;1.40;;;;;;;12.56;70.91;97794.31;5107146;28;20212;-71
2023/10/31 07:52:33;;;;;;;1.67;1.23;;;;;;;12.53;70.87;97779.50;5107989;28;20046;-71
2023/10/31 07:55:00;;;;;;;1.75;1.20;;;;;;;12.48;70.71;97798.50;5107145;28;20040;-71
2023/10/31 07:57:27;;;;;;;1.60;1.30;;;;;;;12.49;70.84;97778.06;5108150;28;20097;-71
2023/10/31 07:59:53;;;;;;;3.20;1.30;;;;;;;12.46;70.61;97800.44;5107796;28;20208;-71
2023/10/31 08:02:20;;;;;;;1.63;1.20;;;;;;;12.47;70.46;97796.81;5108353;28;20058;-72
2023/10/31 08:04:47;;;;;;;2.10;1.30;;;;;;;12.48;70.73;97800.31;5108261;28;20048;-72
2023/10/31 08:07:15;;;;;;;2.20;1.40;;;;;;;12.46;70.57;97786.31;5107755;28;20036;-72
2023/10/31 08:09:42;;;;;;;1.75;1.30;;;;;;;12.47;70.22;97804.78;5107938;28;20047;-72
2023/10/31 08:12:09;;;;;;;2.00;1.30;;;;;;;12.47;70.10;97778.22;5107742;28;20078;-72
2023/10/31 08:14:36;;;;;;;3.30;1.50;;;;;;;12.49;70.32;97770.09;5108104;28;20103;-72
2023/10/31 08:17:03;;;;;;;2.60;1.40;;;;;;;12.24;70.12;97728.06;5107357;28;20204;-72
2023/10/31 08:19:30;;;;;;;3.67;1.25;;;;;;;12.45;69.85;97761.56;5107692;28;20051;-72
2023/10/31 08:21:57;;;;;;;1.67;1.20;;;;;;;12.47;69.56;97778.22;5106981;28;20040;-72
2023/10/31 08:24:25;;;;;;;1.88;1.40;;;;;;;12.45;69.75;97764.22;5107620;28;20043;-72
2023/10/31 08:26:51;;;;;;;1.42;1.17;;;;;;;12.43;69.80;97768.81;5107616;28;20048;-72
2023/10/31 08:29:18;;;;;;;1.88;1.30;;;;;;;12.46;68.89;97765.91;5107807;28;20043;-72
2023/10/31 08:31:45;;;;;;;2.13;1.40;;;;;;;12.45;69.28;97763.38;5107128;28;20060;-71
2023/10/31 08:34:11;;;;;;;1.73;1.17;;;;;;;12.39;68.94;97766.56;5107136;28;20308;-71
2023/10/31 08:36:39;;;;;;;2.75;1.30;;;;;;;12.41;69.00;97804.47;5105718;28;20039;-71
2023/10/31 08:39:05;;;;;;;3.33;1.50;;;;;;;12.26;69.01;97785.41;5107157;28;20031;-71
2023/10/31 08:41:34;;;;;;;1.65;1.20;;;;;;;12.43;68.90;97829.94;5107168;28;20131;-72
2023/10/31 08:44:01;;;;;;;3.13;1.40;;;;;;;12.10;68.38;97764.59;5107254;28;20055;-71
2023/10/31 08:46:28;;;;;;;1.58;1.20;;;;;;;12.42;68.86;97825.59;5106029;28;20050;-72
2023/10/31 08:48:54;;;;;;;1.50;1.10;;;;;;;12.44;69.03;97820.16;5107395;28;20055;-72
2023/10/31 08:51:23;;;;;;;3.95;1.50;;;;;;;12.40;68.30;97824.91;5105865;28;20036;-71
2023/10/31 08:53:49;;;;;;;1.58;1.10;;;;;;;12.05;67.55;97748.22;5106811;28;20177;-71
2023/10/31 08:56:16;;;;;;;2.17;1.33;;;;;;;12.39;68.24;97807.28;5106378;28;20044;-71
2023/10/31 08:58:44;;;;;;;1.77;1.20;;;;;;;12.26;68.17;97781.91;5106908;28;20043;-70
2023/10/31 09:01:11;;;;;;;2.53;1.30;;;;;;;12.36;67.42;97801.38;5105769;28;20040;-71
2023/10/31 09:03:37;;;;;;;2.22;1.55;;;;;;;12.38;67.70;97818.88;5106865;28;20052;-71
2023/10/31 09:06:05;;;;;;;2.40;1.50;;;;;;;12.19;67.45;97781.59;5106646;28;20123;-71
2023/10/31 09:08:33;;;;;;;1.55;1.25;;;;;;;12.38;67.44;97805.59;5106654;28;20060;-71
2023/10/31 09:11:01;;;;;;;2.70;1.30;;;;;;;12.00;66.63;97747.78;5106576;28;20040;-71
2023/10/31 09:13:28;;;;;;;1.80;1.30;;;;;;;12.37;67.38;97811.03;5106704;28;20036;-70
2023/10/31 09:15:56;;;;;;;2.15;1.40;;;;;;;12.34;66.84;97811.28;5105560;28;20119;-71
2023/10/31 09:18:23;;;;;;;2.05;1.40;;;;;;;12.36;67.62;97806.69;5106657;28;20046;-71
2023/10/31 09:20:52;;;;;;;1.98;1.30;;;;;;;12.32;66.77;97810.59;5106230;28;20044;-71
2023/10/31 09:23:18;;;;;;;2.00;1.25;;;;;;;11.77;67.42;97733.81;5106421;28;20040;-71
2023/10/31 09:25:45;;;;;;;1.80;1.40;;;;;;;11.62;67.00;97695.31;5106384;28;20101;-71
2023/10/31 09:28:12;;;;;;;2.22;1.27;;;;;;;12.38;67.38;97816.22;5106324;28;20097;-70
2023/10/31 09:30:39;;;;;;;1.95;1.30;;;;;;;12.37;67.13;97803.06;5105580;28;20094;-71
2023/10/31 09:33:07;;;;;;;1.80;1.20;;;;;;;12.37;67.64;97803.06;5106054;28;20287;-71
2023/10/31 09:35:34;;;;;;;4.28;1.50;;;;;;;12.39;68.39;97804.63;5106125;28;20032;-71
2023/10/31 09:38:01;;;;;;;1.98;1.20;;;;;;;12.37;68.00;97816.34;5106114;28;20056;-71
2023/10/31 09:40:28;;;;;;;1.80;1.20;;;;;;;12.32;67.80;97803.47;5106469;28;20052;-71
2023/10/31 09:42:54;;;;;;;2.53;1.40;;;;;;;12.34;68.20;97828.06;5104872;28;20046;-71
2023/10/31 09:45:21;;;;;;;1.77;1.20;;;;;;;12.33;68.54;97797.19;5105785;28;20045;-71
2023/10/31 09:47:48;;;;;;;1.70;1.25;;;;;;;12.34;68.82;97803.31;5105775;28;20279;-71
2023/10/31 09:50:16;;;;;;;1.85;1.25;;;;;;;12.29;69.46;97817.00;5104938;28;20036;-71
2023/10/31 09:52:43;;;;;;;4.90;1.38;;;;;;;12.30;69.82;97807.22;5105176;28;20036;-71
2023/10/31 09:55:10;;;;;;;2.03;1.33;;;;;;;12.29;70.06;97811.69;5104951;28;20048;-71
2023/10/31 09:57:37;;;;;;;2.40;1.30;;;;;;;12.27;70.08;97834.91;5105547;28;20040;-71
2023/10/31 10:00:04;;;;;;;2.13;1.40;;;;;;;12.28;70.25;97849.03;5105923;28;20040;-71
2023/10/31 10:02:31;;;;;;;3.45;1.30;;;;;;;12.24;70.15;97845.78;5105943;28;20051;-71
2023/10/31 10:04:58;;;;;;;2.92;1.77;;;;;;;12.22;69.98;97839.75;5104996;28;20036;-71
2023/10/31 10:07:26;;;;;;;2.58;1.77;;;;;;;12.02;70.71;97804.25;5104795;28;20040;-71
2023/10/31 10:09:53;;;;;;;2.10;1.40;;;;;;;12.04;70.53;97801.47;5105711;28;20192;-71
2023/10/31 10:12:20;;;;;;;2.50;1.70;;;;;;;12.18;70.73;97838.34;5106020;28;20090;-71
2023/10/31 10:14:47;;;;;;;1.58;1.23;;;;;;;12.18;71.04;97844.50;5104627;28;20093;-71
2023/10/31 10:17:18;;;;;;;1.90;1.23;;;;;;;12.15;72.11;97854.50;5105748;28;20074;-71
2023/10/31 10:19:44;;;;;;;1.80;1.30;;;;;;;12.14;72.09;97842.19;5105027;28;20046;-71
2023/10/31 10:22:12;;;;;;;4.43;1.50;;;;;;;12.11;72.11;97877.81;5104530;28;20036;-71
2023/10/31 10:24:42;;;;;;;2.53;1.63;;;;;;;12.09;72.89;97887.72;5105482;28;20059;-71
2023/10/31 10:27:09;;;;;;;2.00;1.30;;;;;;;12.10;72.96;97881.44;5105596;28;20089;-71
2023/10/31 10:29:38;;;;;;;2.25;1.50;;;;;;;11.48;73.22;97784.03;5104749;28;20257;-71
2023/10/31 10:32:09;;;;;;;3.53;1.73;;;;;;;11.81;74.07;97814.00;5105212;28;20063;-74
2023/10/31 10:34:37;;;;;;;3.10;1.30;;;;;;;12.12;73.96;97873.34;5087994;28;20035;-75
2023/10/31 10:37:06;;;;;;;2.17;1.45;;;;;;;12.04;74.09;97879.31;5105207;28;20220;-75
2023/10/31 10:39:34;;;;;;;2.60;1.52;;;;;;;12.01;74.57;97871.59;5105306;28;20058;-75
2023/10/31 10:42:07;;;;;;;2.05;1.40;;;;;;;11.77;74.03;97821.38;5104279;28;20063;-75
2023/10/31 10:44:35;;;;;;;2.60;1.70;;;;;;;11.94;74.79;97865.09;5105502;28;20051;-75
2023/10/31 10:47:04;;;;;;;3.42;1.77;;;;;;;11.91;75.45;97859.22;5104373;28;20032;-74
2023/10/31 10:49:35;;;;;;;3.10;1.80;;;;;;;11.87;75.39;97856.81;5105036;28;20044;-76
2023/10/31 10:52:15;;;;;;;2.65;1.58;;;;;;;11.77;75.90;97869.16;5105403;28;20207;-75
2023/10/31 10:54:46;;;;;;;2.58;1.85;;;;;;;11.74;75.80;97877.38;5104510;28;20040;-75
2023/10/31 10:57:21;;;;;;;2.03;1.30;;;;;;;11.69;76.14;97860.16;5105288;28;20059;-75
2023/10/31 10:59:51;;;;;;;3.05;1.88;;;;;;;11.63;76.29;97865.97;5107131;28;20036;-75
2023/10/31 11:02:19;;;;;;;3.75;1.60;;;;;;;11.61;76.75;97887.34;5109789;28;20221;-75
2023/10/31 11:04:46;;;;;;;2.63;1.42;;;;;;;11.59;76.46;97883.97;5108601;28;20040;-74
2023/10/31 11:07:13;;;;;;;3.22;1.58;;;;;;;11.60;76.27;97903.38;5109095;28;20089;-75
2023/10/31 11:09:43;;;;;;;2.97;1.52;;;;;;;11.55;76.44;97919.69;5108052;28;20047;-74
2023/10/31 11:12:11;;;;;;;2.75;1.45;;;;;;;11.41;76.31;97904.03;5108951;28;20103;-74
2023/10/31 11:14:41;;;;;;;2.42;1.40;;;;;;;11.41;76.39;97915.50;5109025;28;20044;-74
2023/10/31 11:17:18;;;;;;;2.15;1.38;;;;;;;11.55;76.91;97955.00;5108540;28;20085;-74
2023/10/31 11:19:44;;;;;;;2.88;1.70;;;;;;;10.56;76.57;97824.28;5108792;28;20040;-74
2023/10/31 11:22:11;;;;;;;2.90;1.73;;;;;;;11.51;76.70;98011.94;5108505;28;20101;-74
2023/10/31 11:24:41;;;;;;;2.10;1.33;;;;;;;11.53;76.43;98057.78;5108243;28;20062;-74
2023/10/31 11:27:08;;;;;;;2.17;1.50;;;;;;;11.47;76.82;98055.59;5108761;28;20099;-74
2023/10/31 11:29:40;;;;;;;3.05;1.85;;;;;;;10.79;77.17;98000.03;5108531;28;20044;-74
2023/10/31 11:32:10;;;;;;;2.75;1.40;;;;;;;11.44;77.12;98086.84;5108035;28;20063;-74
2023/10/31 11:34:40;;;;;;;2.90;1.58;;;;;;;11.49;76.86;98087.31;5107636;28;20036;-74